Weather at Pointe-à-Pitre Le Raizet International Airport

Public forecast

Using degrees Celsius for public forecast. Weather courtesy of forecast.io.

Current aviation weather report (METAR) for Pointe-à-Pitre Le Raizet International Airport

Report is more than 6 hours old.

2022/11/14 15:30 (retrieved 2 years ago)

TFFR 141530Z AUTO 12017KT 9999 BKN022/// BKN034/// BKN042/// ///TCU 28/24 Q1014 TEMPO VRB15G25KT 1000 TSRA SCT010 BKN012CB

Aviation forecast (TAF) for Pointe-à-Pitre Le Raizet International Airport

Forecast is more than 12 hours old.

2023/02/22 18:18 (retrieved 1 year ago)

TAF TFFR 221700Z 2218/2318 07012KT 9999 SCT035 BECMG 2300/2303 VRB02KT PROB30 TEMPO 2304/2312 4000 SHRA SCT020TCU BECMG 2312/2314 07012KT